ExpreSS Skopelitis — SW3130 — position and weather

sailwx.info

Track history (hours):
 
Tides and Currents Weather Stations Pressure Air Temp Water Temp Dewpoint Dewpoint Depression Visibility Wind Speed Wind Dir Waves Ship Positions

ExpreSS Skopelitis

Last reported at 2015-Mar-30 09:33 UTC. Time now 2015-Mar-30 10:33 UTC.
Position N 37°06' E 025°22'.

Length 45 m; draft 2.4 m.

Type: Passenger vessel. MMSI: 237029400.

Date/timePositionNaut miles runAvg speedWind from/ knotsBaromVisibWave heightAir tempDewpointWater temp
2015-Mar-30 09:33N 37°06' E 025°22'3 3.1
2015-Mar-30 08:33N 37°04' E 025°20'27 5.2
2015-Mar-30 03:17N 36°51' E 025°50'26 0.7
2015-Mar-28 12:33N 37°02' E 025°21'5 4.8
2015-Mar-28 11:33N 37°06' E 025°22'0 0.0
2015-Mar-28 10:33N 37°06' E 025°22'4 4.3
2015-Mar-28 09:33N 37°02' E 025°21'15 6.8
2015-Mar-28 07:22N 36°57' E 025°38'5 0.1
2015-Mar-26 15:22N 36°53' E 025°43'21 7.6
2015-Mar-26 12:33N 37°04' E 025°20'3 3.1
2015-Mar-26 11:33N 37°06' E 025°22'0 0.0
2015-Mar-26 10:33N 37°06' E 025°22'0 0.0
2015-Mar-26 09:33N 37°06' E 025°22'3 2.7
2015-Mar-26 08:33N 37°05' E 025°20'3 0.2
2015-Mar-25 12:33N 37°01' E 025°21'5 5.2
2015-Mar-25 11:33N 37°06' E 025°22'0 0.0
2015-Mar-25 10:33N 37°06' E 025°22'3 2.6
2015-Mar-25 09:33N 37°05' E 025°20'27 1.5
2015-Mar-24 15:32N 36°51' E 025°48'24 8.1
2015-Mar-24 12:33N 37°01' E 025°21'5 5.2
2015-Mar-24 11:33N 37°06' E 025°22'0 0.0
2015-Mar-24 10:33N 37°06' E 025°22'0 0.0
2015-Mar-24 09:33N 37°06' E 025°22'2 1.8
2015-Mar-24 08:33N 37°05' E 025°20'4 0.2
2015-Mar-23 12:33N 37°02' E 025°21'5 4.6
2015-Mar-23 11:33N 37°06' E 025°22'0 0.0
2015-Mar-23 10:33N 37°06' E 025°22'3 2.8
2015-Mar-23 09:33N 37°04' E 025°20'28 5.3
2015-Mar-23 04:17N 36°51' E 025°50'33 2.0
2015-Mar-22 11:33N 37°15' E 025°23'1212.4
2015-Mar-22 10:33N 37°18' E 025°08'1312.5
2015-Mar-22 09:33N 37°21' E 024°53'6012.1
2015-Mar-22 04:34N 37°42' E 023°41'1212.2
2015-Mar-22 03:33N 37°54' E 023°36'4 3.8
2015-Mar-22 02:24N 37°57' E 023°33'0 0.0
2015-Mar-22 00:29N 37°57' E 023°33'0 0.0
2015-Mar-21 19:28N 37°57' E 023°33'0 0.0
2015-Mar-21 18:08N 37°57' E 023°33'0 0.0
2015-Mar-21 16:27N 37°57' E 023°33'0 0.0
2015-Mar-20 15:23N 37°57' E 023°33'  
Track history (hours):
 
Tides and Currents Weather Stations Pressure Air Temp Water Temp Dewpoint Dewpoint Depression Visibility Wind Speed Wind Dir Waves Ship Positions

ExpreSS Skopelitis

Last reported at 2015-Mar-30 09:33 UTC. Time now 2015-Mar-30 10:33 UTC.
Position N 37°06' E 025°22'.

Length 45 m; draft 2.4 m.

Type: Passenger vessel. MMSI: 237029400.

Date/timePositionNaut miles runAvg speedWind from/ knotsBaromVisibWave heightAir tempDewpointWater temp
2015-Mar-30 09:33N 37°06' E 025°22'3 3.1
2015-Mar-30 08:33N 37°04' E 025°20'27 5.2
2015-Mar-30 03:17N 36°51' E 025°50'26 0.7
2015-Mar-28 12:33N 37°02' E 025°21'5 4.8
2015-Mar-28 11:33N 37°06' E 025°22'0 0.0
2015-Mar-28 10:33N 37°06' E 025°22'4 4.3
2015-Mar-28 09:33N 37°02' E 025°21'15 6.8
2015-Mar-28 07:22N 36°57' E 025°38'5 0.1
2015-Mar-26 15:22N 36°53' E 025°43'21 7.6
2015-Mar-26 12:33N 37°04' E 025°20'3 3.1
2015-Mar-26 11:33N 37°06' E 025°22'0 0.0
2015-Mar-26 10:33N 37°06' E 025°22'0 0.0
2015-Mar-26 09:33N 37°06' E 025°22'3 2.7
2015-Mar-26 08:33N 37°05' E 025°20'3 0.2
2015-Mar-25 12:33N 37°01' E 025°21'5 5.2
2015-Mar-25 11:33N 37°06' E 025°22'0 0.0
2015-Mar-25 10:33N 37°06' E 025°22'3 2.6
2015-Mar-25 09:33N 37°05' E 025°20'27 1.5
2015-Mar-24 15:32N 36°51' E 025°48'24 8.1
2015-Mar-24 12:33N 37°01' E 025°21'5 5.2
2015-Mar-24 11:33N 37°06' E 025°22'0 0.0
2015-Mar-24 10:33N 37°06' E 025°22'0 0.0
2015-Mar-24 09:33N 37°06' E 025°22'2 1.8
2015-Mar-24 08:33N 37°05' E 025°20'4 0.2
2015-Mar-23 12:33N 37°02' E 025°21'5 4.6
2015-Mar-23 11:33N 37°06' E 025°22'0 0.0
2015-Mar-23 10:33N 37°06' E 025°22'3 2.8
2015-Mar-23 09:33N 37°04' E 025°20'28 5.3
2015-Mar-23 04:17N 36°51' E 025°50'33 2.0
2015-Mar-22 11:33N 37°15' E 025°23'1212.4
2015-Mar-22 10:33N 37°18' E 025°08'1312.5
2015-Mar-22 09:33N 37°21' E 024°53'6012.1
2015-Mar-22 04:34N 37°42' E 023°41'1212.2
2015-Mar-22 03:33N 37°54' E 023°36'4 3.8
2015-Mar-22 02:24N 37°57' E 023°33'0 0.0
2015-Mar-22 00:29N 37°57' E 023°33'0 0.0
2015-Mar-21 19:28N 37°57' E 023°33'0 0.0
2015-Mar-21 18:08N 37°57' E 023°33'0 0.0
2015-Mar-21 16:27N 37°57' E 023°33'0 0.0
2015-Mar-20 15:23N 37°57' E 023°33'  

Dump ship's entire track history